Time;durP1;ratioP1;P1;durP2;ratioP2;P2;SDS_P1;SDS_P2;PMS_P1;PMS_P2;Temp;Humidity;BMP_temperature;BMP_pressure;BME280_temperature;BME280_humidity;BME280_pressure;Samples;Min_cycle;Max_cycle;Signal;HPM_P1;HPM_P2
2022/08/07 00:01:36;;;;;;;1.75;0.50;;;;;;;;;;5095693;28;20032;-82
2022/08/07 00:04:04;;;;;;;0.52;0.40;;;;;;;;;;5116630;28;20030;-82
2022/08/07 00:06:29;;;;;;;1.92;0.40;;;;;;;;;;5098853;28;20106;-81
2022/08/07 00:08:54;;;;;;;0.40;0.35;;;;;;;;;;5112973;28;20047;-81
2022/08/07 00:11:22;;;;;;;1.75;0.63;;;;;;;;;;5081417;28;20150;-81
2022/08/07 00:13:51;;;;;;;1.45;0.52;;;;;;;;;;5095852;28;20024;-82
2022/08/07 00:16:19;;;;;;;0.32;0.25;;;;;;;;;;5096018;28;20020;-81
2022/08/07 00:18:44;;;;;;;1.05;0.50;;;;;;;;;;5093613;28;20068;-81
2022/08/07 00:21:12;;;;;;;0.50;0.30;;;;;;;;;;5090895;28;20101;-80
2022/08/07 00:23:38;;;;;;;0.50;0.50;;;;;;;;;;5089283;28;20015;-85
2022/08/07 00:26:06;;;;;;;0.50;0.30;;;;;;;;;;5077149;28;20016;-84
2022/08/07 00:28:32;;;;;;;0.75;0.65;;;;;;;;;;5077375;28;20380;-82
2022/08/07 00:30:57;;;;;;;0.75;0.55;;;;;;;;;;5076688;28;20023;-83
2022/08/07 00:33:27;;;;;;;2.80;0.30;;;;;;;;;;5095710;28;20088;-81
2022/08/07 00:35:55;;;;;;;0.60;0.45;;;;;;;;;;5086798;28;20028;-82
2022/08/07 00:38:21;;;;;;;1.60;0.90;;;;;;;;;;5094834;28;20024;-82
2022/08/07 00:40:49;;;;;;;1.67;0.80;;;;;;;;;;5095233;28;20475;-81
2022/08/07 00:43:19;;;;;;;1.65;0.95;;;;;;;;;;5077352;28;20026;-83
2022/08/07 00:45:44;;;;;;;1.92;0.68;;;;;;;;;;5094865;28;20025;-82
2022/08/07 00:48:10;;;;;;;0.47;0.40;;;;;;;;;;5094674;28;20039;-83
2022/08/07 00:50:35;;;;;;;1.60;0.98;;;;;;;;;;5060302;28;20027;-83
2022/08/07 00:53:01;;;;;;;0.85;0.80;;;;;;;;;;5092679;28;20106;-83
2022/08/07 00:55:29;;;;;;;0.57;0.57;;;;;;;;;;5071258;28;20028;-83
2022/08/07 00:57:57;;;;;;;1.55;0.70;;;;;;;;;;5076356;28;20024;-80
2022/08/07 01:00:26;;;;;;;0.65;0.43;;;;;;;;;;5076845;28;20016;-83
2022/08/07 01:02:52;;;;;;;1.38;0.60;;;;;;;;;;5094603;28;20369;-83
2022/08/07 01:05:19;;;;;;;0.93;0.70;;;;;;;;;;5077480;28;20020;-82
2022/08/07 01:07:44;;;;;;;0.80;0.70;;;;;;;;;;5093181;28;20028;-83
2022/08/07 01:10:10;;;;;;;0.95;0.40;;;;;;;;;;5076724;28;20039;-83
2022/08/07 01:12:36;;;;;;;0.50;0.50;;;;;;;;;;5074863;28;20028;-82
2022/08/07 01:15:05;;;;;;;0.20;0.17;;;;;;;;;;5085623;28;20047;-82
2022/08/07 01:17:31;;;;;;;1.13;0.60;;;;;;;;;;5076709;28;20463;-82
2022/08/07 01:20:06;;;;;;;0.68;0.47;;;;;;;;;;5093934;28;20027;-83
2022/08/07 01:22:32;;;;;;;1.73;0.68;;;;;;;;;;5077145;28;20088;-83
2022/08/07 01:24:57;;;;;;;0.80;0.55;;;;;;;;;;5078762;28;20411;-82
2022/08/07 01:27:26;;;;;;;1.38;1.05;;;;;;;;;;5092399;28;20404;-83
2022/08/07 01:29:54;;;;;;;2.30;0.68;;;;;;;;;;5079057;28;20035;-83
2022/08/07 01:32:19;;;;;;;1.27;0.65;;;;;;;;;;5076779;28;20056;-82
2022/08/07 01:34:48;;;;;;;0.50;0.50;;;;;;;;;;5076474;28;20048;-84
2022/08/07 01:37:16;;;;;;;2.58;0.68;;;;;;;;;;5094428;28;20036;-83
2022/08/07 01:39:43;;;;;;;0.60;0.50;;;;;;;;;;5075302;28;20020;-83
2022/08/07 01:42:09;;;;;;;0.73;0.50;;;;;;;;;;5060226;28;20039;-83
2022/08/07 01:44:34;;;;;;;0.52;0.40;;;;;;;;;;5051656;28;20024;-82
2022/08/07 01:47:00;;;;;;;2.58;0.68;;;;;;;;;;5076600;28;20035;-83
2022/08/07 01:49:25;;;;;;;0.68;0.47;;;;;;;;;;5094504;28;20020;-81
2022/08/07 01:51:50;;;;;;;0.65;0.60;;;;;;;;;;5092833;28;20422;-83
2022/08/07 01:54:18;;;;;;;0.80;0.43;;;;;;;;;;5060020;28;20035;-81
2022/08/07 01:56:52;;;;;;;0.77;0.63;;;;;;;;;;5076481;28;20375;-82
2022/08/07 01:59:23;;;;;;;0.85;0.68;;;;;;;;;;5076230;28;20032;-84
2022/08/07 02:01:55;;;;;;;1.95;0.70;;;;;;;;;;5073475;28;20458;-85
2022/08/07 02:04:26;;;;;;;2.03;1.03;;;;;;;;;;5093093;28;20024;-83
2022/08/07 02:06:53;;;;;;;1.95;0.98;;;;;;;;;;5089720;28;20093;-83
2022/08/07 02:09:19;;;;;;;2.70;0.88;;;;;;;;;;5089708;28;20049;-84
2022/08/07 02:11:48;;;;;;;1.00;0.77;;;;;;;;;;5094049;28;20521;-84
2022/08/07 02:14:14;;;;;;;0.55;0.55;;;;;;;;;;5074243;28;20027;-84
2022/08/07 02:16:41;;;;;;;0.77;0.70;;;;;;;;;;5075309;28;20023;-83
2022/08/07 02:19:09;;;;;;;1.38;0.65;;;;;;;;;;5089385;28;20584;-79
2022/08/07 02:21:36;;;;;;;0.68;0.40;;;;;;;;;;5085867;28;20471;-83
2022/08/07 02:24:03;;;;;;;0.98;0.80;;;;;;;;;;5094985;28;20501;-83
2022/08/07 02:26:32;;;;;;;1.27;1.17;;;;;;;;;;5079184;28;20110;-84
2022/08/07 02:28:58;;;;;;;0.85;0.80;;;;;;;;;;5093408;28;20042;-81
2022/08/07 02:31:24;;;;;;;0.63;0.52;;;;;;;;;;5108208;28;20028;-84
2022/08/07 02:33:56;;;;;;;0.88;0.77;;;;;;;;;;5074482;28;20028;-80
2022/08/07 02:36:22;;;;;;;0.55;0.55;;;;;;;;;;5063410;28;20052;-82
2022/08/07 02:38:50;;;;;;;3.88;0.68;;;;;;;;;;5107025;28;20034;-83
2022/08/07 02:41:15;;;;;;;2.63;0.93;;;;;;;;;;5093403;28;20052;-84
2022/08/07 02:43:41;;;;;;;0.90;0.50;;;;;;;;;;5094114;28;20062;-83
2022/08/07 02:46:07;;;;;;;2.50;0.77;;;;;;;;;;5106775;28;20047;-83
2022/08/07 02:48:35;;;;;;;2.38;0.75;;;;;;;;;;5095938;28;20055;-83
2022/08/07 02:51:05;;;;;;;1.00;0.73;;;;;;;;;;5079972;28;20034;-83
2022/08/07 02:53:36;;;;;;;0.45;0.45;;;;;;;;;;5112181;28;20055;-83
2022/08/07 02:56:06;;;;;;;1.20;0.95;;;;;;;;;;5076693;28;20111;-82
2022/08/07 02:58:36;;;;;;;1.77;0.60;;;;;;;;;;5086881;28;20431;-83
2022/08/07 03:01:04;;;;;;;1.50;0.77;;;;;;;;;;5084263;28;20031;-84
2022/08/07 03:03:34;;;;;;;1.90;0.93;;;;;;;;;;5092051;28;20110;-83
2022/08/07 03:06:02;;;;;;;1.42;0.82;;;;;;;;;;5084062;28;20032;-80
2022/08/07 03:08:27;;;;;;;3.63;0.95;;;;;;;;;;5091983;28;20039;-80
2022/08/07 03:10:58;;;;;;;0.75;0.75;;;;;;;;;;5095451;28;20088;-83
2022/08/07 03:13:26;;;;;;;1.00;0.50;;;;;;;;;;5066269;28;20028;-82
2022/08/07 03:15:52;;;;;;;6.53;0.75;;;;;;;;;;5068764;28;20051;-83
2022/08/07 03:18:20;;;;;;;0.80;0.47;;;;;;;;;;5072567;28;20064;-82
2022/08/07 03:20:46;;;;;;;0.70;0.70;;;;;;;;;;5071470;28;20029;-82
2022/08/07 03:23:14;;;;;;;0.60;0.40;;;;;;;;;;5061119;28;20157;-81
2022/08/07 03:25:40;;;;;;;0.98;0.75;;;;;;;;;;5086467;28;20020;-81
2022/08/07 03:28:09;;;;;;;1.05;0.70;;;;;;;;;;5078612;28;20028;-82
2022/08/07 03:30:37;;;;;;;2.42;1.00;;;;;;;;;;5076642;28;20101;-83
2022/08/07 03:33:05;;;;;;;1.35;0.75;;;;;;;;;;5079327;28;20401;-83
2022/08/07 03:35:31;;;;;;;0.93;0.60;;;;;;;;;;5090003;28;20039;-78
2022/08/07 03:38:00;;;;;;;1.50;0.63;;;;;;;;;;5077559;28;20039;-83
2022/08/07 03:40:26;;;;;;;0.88;0.68;;;;;;;;;;5063508;28;20551;-83
2022/08/07 03:42:52;;;;;;;0.85;0.70;;;;;;;;;;5077899;28;20107;-82
2022/08/07 03:45:21;;;;;;;1.08;0.73;;;;;;;;;;5078157;28;20055;-82
2022/08/07 03:47:46;;;;;;;0.55;0.55;;;;;;;;;;5079193;28;20099;-81
2022/08/07 03:50:12;;;;;;;1.45;0.80;;;;;;;;;;5080698;28;20165;-83
2022/08/07 03:52:40;;;;;;;0.45;0.40;;;;;;;;;;5097249;28;20024;-83
2022/08/07 03:55:05;;;;;;;1.48;1.00;;;;;;;;;;5098799;28;20032;-82
2022/08/07 03:57:34;;;;;;;1.58;0.93;;;;;;;;;;5097411;28;20189;-83
2022/08/07 03:59:59;;;;;;;1.65;0.57;;;;;;;;;;5096972;28;20085;-80
2022/08/07 04:02:25;;;;;;;0.98;0.63;;;;;;;;;;5073455;28;20027;-81
2022/08/07 04:04:50;;;;;;;1.38;0.70;;;;;;;;;;5092382;28;20034;-81
2022/08/07 04:07:19;;;;;;;1.17;0.60;;;;;;;;;;5077409;28;20027;-80
2022/08/07 04:09:45;;;;;;;0.70;0.50;;;;;;;;;;5094083;28;20047;-81
2022/08/07 04:12:11;;;;;;;0.65;0.50;;;;;;;;;;5076557;28;20024;-82
2022/08/07 04:14:38;;;;;;;1.08;0.63;;;;;;;;;;5095719;28;20027;-82
2022/08/07 04:17:06;;;;;;;0.68;0.65;;;;;;;;;;5085162;28;20051;-80
2022/08/07 04:19:31;;;;;;;1.15;0.65;;;;;;;;;;5083738;28;20068;-81
2022/08/07 04:21:57;;;;;;;0.57;0.40;;;;;;;;;;5085885;28;20430;-81
2022/08/07 04:24:23;;;;;;;0.88;0.47;;;;;;;;;;5058115;28;20021;-81
2022/08/07 04:26:48;;;;;;;0.28;0.25;;;;;;;;;;5085394;28;20023;-82
2022/08/07 04:29:16;;;;;;;0.80;0.70;;;;;;;;;;5097260;28;20164;-83
2022/08/07 04:31:44;;;;;;;1.05;0.63;;;;;;;;;;5088006;28;20059;-82
2022/08/07 04:34:09;;;;;;;0.95;0.50;;;;;;;;;;5076954;28;20075;-83
2022/08/07 04:36:37;;;;;;;0.52;0.47;;;;;;;;;;5092003;28;20066;-83
2022/08/07 04:39:03;;;;;;;0.70;0.45;;;;;;;;;;5077509;28;20457;-83
2022/08/07 04:41:29;;;;;;;0.55;0.40;;;;;;;;;;5095619;28;20107;-81
2022/08/07 04:44:14;;;;;;;0.50;0.50;;;;;;;;;;5095389;28;20106;-82
2022/08/07 04:47:11;;;;;;;1.65;0.77;;;;;;;;;;5090030;28;20065;-82
2022/08/07 04:49:48;;;;;;;1.40;0.82;;;;;;;;;;5090005;28;20032;-83
2022/08/07 04:52:25;;;;;;;0.30;0.30;;;;;;;;;;5091711;28;20405;-82
2022/08/07 04:55:21;;;;;;;0.60;0.60;;;;;;;;;;5091691;28;20035;-83
2022/08/07 04:57:51;;;;;;;1.42;0.55;;;;;;;;;;5070011;28;20428;-80
2022/08/07 05:00:20;;;;;;;2.13;0.40;;;;;;;;;;5075869;28;20031;-80
2022/08/07 05:03:07;;;;;;;1.58;0.77;;;;;;;;;;5063635;28;20016;-83
2022/08/07 05:05:44;;;;;;;1.02;0.52;;;;;;;;;;5088606;28;20031;-82
2022/08/07 05:08:25;;;;;;;0.95;0.65;;;;;;;;;;5077605;28;20024;-83
2022/08/07 05:11:03;;;;;;;1.70;0.70;;;;;;;;;;5092871;28;20114;-83
2022/08/07 05:13:38;;;;;;;0.30;0.30;;;;;;;;;;5078077;28;20047;-81
2022/08/07 05:16:08;;;;;;;1.20;0.70;;;;;;;;;;5098804;28;20028;-82
2022/08/07 05:18:43;;;;;;;1.42;0.70;;;;;;;;;;5100902;28;20445;-84
2022/08/07 05:21:11;;;;;;;1.23;1.10;;;;;;;;;;5059926;28;20030;-84
2022/08/07 05:23:41;;;;;;;0.22;0.22;;;;;;;;;;5076061;28;20047;-82
2022/08/07 05:26:11;;;;;;;3.28;1.65;;;;;;;;;;5081427;28;20028;-81
2022/08/07 05:28:37;;;;;;;0.50;0.50;;;;;;;;;;5081595;28;20028;-80
2022/08/07 05:31:03;;;;;;;0.57;0.57;;;;;;;;;;5075415;28;20092;-82
2022/08/07 05:33:29;;;;;;;0.80;0.50;;;;;;;;;;5092759;28;20306;-81
2022/08/07 05:35:55;;;;;;;0.95;0.60;;;;;;;;;;5088022;28;20406;-81
2022/08/07 05:38:23;;;;;;;0.73;0.43;;;;;;;;;;5098453;28;20032;-80
2022/08/07 05:40:49;;;;;;;2.50;0.50;;;;;;;;;;5077020;28;20027;-81
2022/08/07 05:43:14;;;;;;;1.38;0.65;;;;;;;;;;5075759;28;21805;-82
2022/08/07 05:45:41;;;;;;;1.45;1.20;;;;;;;;;;5075638;28;20529;-83
2022/08/07 05:48:09;;;;;;;0.57;0.57;;;;;;;;;;5091657;28;20452;-82
2022/08/07 05:50:38;;;;;;;1.17;0.80;;;;;;;;;;5090595;28;20111;-82
2022/08/07 05:53:09;;;;;;;0.52;0.43;;;;;;;;;;5081685;28;20088;-82
2022/08/07 05:55:36;;;;;;;0.40;0.40;;;;;;;;;;5089136;28;20032;-82
2022/08/07 05:58:04;;;;;;;0.77;0.65;;;;;;;;;;5076119;28;20028;-75
2022/08/07 06:00:35;;;;;;;0.80;0.70;;;;;;;;;;5079607;28;20035;-81
2022/08/07 06:03:07;;;;;;;1.52;0.70;;;;;;;;;;5076962;28;20031;-81
2022/08/07 06:05:35;;;;;;;1.60;0.90;;;;;;;;;;5081230;28;20028;-81
2022/08/07 06:08:03;;;;;;;0.43;0.40;;;;;;;;;;5103488;28;20042;-80
2022/08/07 06:10:29;;;;;;;0.73;0.50;;;;;;;;;;5075389;28;20039;-82
2022/08/07 06:13:02;;;;;;;0.88;0.40;;;;;;;;;;5093149;28;20028;-80
2022/08/07 06:15:28;;;;;;;0.47;0.40;;;;;;;;;;5078399;28;20152;-81
2022/08/07 06:17:57;;;;;;;0.45;0.43;;;;;;;;;;5097143;28;20041;-81
2022/08/07 06:20:23;;;;;;;0.22;0.22;;;;;;;;;;5089239;28;20047;-81
2022/08/07 06:22:51;;;;;;;0.30;0.30;;;;;;;;;;5080932;28;20104;-81
2022/08/07 06:25:17;;;;;;;0.30;0.30;;;;;;;;;;5079945;28;20441;-80
2022/08/07 06:27:42;;;;;;;0.35;0.35;;;;;;;;;;5089586;28;20342;-81
2022/08/07 06:30:11;;;;;;;0.22;0.20;;;;;;;;;;5090312;28;20027;-80
2022/08/07 06:32:36;;;;;;;0.90;0.70;;;;;;;;;;5084948;28;20048;-77
2022/08/07 06:35:04;;;;;;;0.32;0.20;;;;;;;;;;5088220;28;20066;-83
2022/08/07 06:37:29;;;;;;;1.42;0.40;;;;;;;;;;5117579;28;20042;-78
2022/08/07 06:39:54;;;;;;;0.65;0.40;;;;;;;;;;5100638;28;20035;-80
2022/08/07 06:42:23;;;;;;;0.55;0.47;;;;;;;;;;5111474;28;20034;-81
2022/08/07 06:44:49;;;;;;;0.80;0.50;;;;;;;;;;5078463;28;20082;-79
2022/08/07 06:47:18;;;;;;;0.43;0.40;;;;;;;;;;5088871;28;20066;-80
2022/08/07 06:49:44;;;;;;;0.60;0.40;;;;;;;;;;5064540;28;20020;-81
2022/08/07 06:52:10;;;;;;;0.32;0.32;;;;;;;;;;5078097;28;20139;-83
2022/08/07 06:54:37;;;;;;;0.28;0.28;;;;;;;;;;5079764;28;20497;-82
2022/08/07 06:57:03;;;;;;;0.30;0.30;;;;;;;;;;5097029;28;20085;-82
2022/08/07 06:59:35;;;;;;;0.10;0.10;;;;;;;;;;5088974;28;20382;-80
2022/08/07 07:02:03;;;;;;;0.20;0.20;;;;;;;;;;5081409;28;20028;-82
2022/08/07 07:04:34;;;;;;;0.55;0.50;;;;;;;;;;5095057;28;20024;-83
2022/08/07 07:07:05;;;;;;;0.17;0.17;;;;;;;;;;5108679;28;20019;-82
2022/08/07 07:09:31;;;;;;;0.45;0.30;;;;;;;;;;5087886;28;20024;-81
2022/08/07 07:12:17;;;;;;;0.28;0.28;;;;;;;;;;5106321;28;20050;-82
2022/08/07 07:14:54;;;;;;;0.43;0.40;;;;;;;;;;5088733;28;20036;-77
2022/08/07 07:17:27;;;;;;;0.30;0.30;;;;;;;;;;5079186;28;20027;-79
2022/08/07 07:19:59;;;;;;;0.20;0.20;;;;;;;;;;5075983;28;20055;-83
2022/08/07 07:22:29;;;;;;;0.38;0.30;;;;;;;;;;5077472;28;20047;-83
2022/08/07 07:24:55;;;;;;;1.08;0.75;;;;;;;;;;5079047;28;20043;-84
2022/08/07 07:27:27;;;;;;;2.63;0.52;;;;;;;;;;5098717;28;20023;-81
2022/08/07 07:29:56;;;;;;;0.38;0.38;;;;;;;;;;5079402;28;20106;-83
2022/08/07 07:32:22;;;;;;;0.40;0.40;;;;;;;;;;5083323;28;20024;-81
2022/08/07 07:34:51;;;;;;;0.40;0.35;;;;;;;;;;5081644;28;20023;-82
2022/08/07 07:37:18;;;;;;;0.10;0.10;;;;;;;;;;5099519;28;20448;-82
2022/08/07 07:39:44;;;;;;;0.95;0.30;;;;;;;;;;5061547;28;20043;-83
2022/08/07 07:42:10;;;;;;;0.40;0.40;;;;;;;;;;5078881;28;20055;-83
2022/08/07 07:44:43;;;;;;;0.20;0.20;;;;;;;;;;5089948;28;20053;-79
2022/08/07 07:47:09;;;;;;;1.48;0.82;;;;;;;;;;5085856;28;20051;-83
2022/08/07 07:49:36;;;;;;;2.97;0.73;;;;;;;;;;5074807;28;20016;-83
2022/08/07 07:52:04;;;;;;;0.30;0.30;;;;;;;;;;5077673;28;20101;-82
2022/08/07 07:54:30;;;;;;;0.17;0.17;;;;;;;;;;5077998;28;20036;-81
2022/08/07 07:56:56;;;;;;;0.70;0.35;;;;;;;;;;5099520;28;20376;-82
2022/08/07 07:59:22;;;;;;;1.02;0.68;;;;;;;;;;5090314;28;20019;-82
2022/08/07 08:01:48;;;;;;;0.20;0.20;;;;;;;;;;5093047;28;20090;-82
2022/08/07 08:04:19;;;;;;;0.38;0.30;;;;;;;;;;5081725;28;20433;-82
2022/08/07 08:06:45;;;;;;;0.20;0.20;;;;;;;;;;5111169;28;20325;-82
2022/08/07 08:09:11;;;;;;;0.90;0.30;;;;;;;;;;5107199;28;20466;-83
2022/08/07 08:11:39;;;;;;;0.30;0.25;;;;;;;;;;5092181;28;20023;-83
2022/08/07 08:14:05;;;;;;;0.38;0.38;;;;;;;;;;5083816;28;20016;-80
2022/08/07 08:16:39;;;;;;;0.10;0.10;;;;;;;;;;5076265;28;20034;-83
2022/08/07 08:19:07;;;;;;;0.20;0.20;;;;;;;;;;5077756;28;20028;-82
2022/08/07 08:27:08;;;;;;;0.40;0.20;;;;;;;;;;5077055;28;20085;-81
2022/08/07 08:29:45;;;;;;;0.30;0.22;;;;;;;;;;5064775;28;20361;-83
2022/08/07 08:32:15;;;;;;;0.10;0.10;;;;;;;;;;5066034;28;20088;-81
2022/08/07 08:34:41;;;;;;;0.35;0.32;;;;;;;;;;5077855;28;20380;-83
2022/08/07 08:37:07;;;;;;;0.43;0.35;;;;;;;;;;5076555;28;20027;-82
2022/08/07 08:39:33;;;;;;;0.00;0.00;;;;;;;;;;5076260;28;20031;-82
2022/08/07 08:42:04;;;;;;;0.10;0.10;;;;;;;;;;5077218;28;20031;-82
2022/08/07 08:44:34;;;;;;;0.10;0.10;;;;;;;;;;5086375;28;20035;-83
2022/08/07 08:47:01;;;;;;;0.20;0.20;;;;;;;;;;5090576;28;20036;-83
2022/08/07 08:49:32;;;;;;;0.28;0.20;;;;;;;;;;5089331;28;20361;-82
2022/08/07 08:52:06;;;;;;;0.50;0.50;;;;;;;;;;5110101;28;20169;-80
2022/08/07 08:54:37;;;;;;;0.10;0.10;;;;;;;;;;5096279;28;20441;-81
2022/08/07 08:57:07;;;;;;;0.10;0.10;;;;;;;;;;5077044;28;20120;-81
2022/08/07 09:00:05;;;;;;;0.65;0.20;;;;;;;;;;5074738;28;20050;-82
2022/08/07 09:02:46;;;;;;;0.20;0.20;;;;;;;;;;5078168;28;20079;-83
2022/08/07 09:05:17;;;;;;;0.10;0.10;;;;;;;;;;5060848;28;20024;-83
2022/08/07 09:08:17;;;;;;;0.10;0.10;;;;;;;;;;5104900;28;20049;-80
2022/08/07 09:10:47;;;;;;;0.10;0.10;;;;;;;;;;5096842;28;20145;-81
2022/08/07 09:13:23;;;;;;;1.17;0.88;;;;;;;;;;5069999;28;20042;-81
2022/08/07 09:16:03;;;;;;;1.33;0.57;;;;;;;;;;5091908;28;20055;-82
2022/08/07 09:18:56;;;;;;;0.10;0.10;;;;;;;;;;5064713;28;20512;-82
2022/08/07 09:21:34;;;;;;;0.20;0.20;;;;;;;;;;5075711;28;20058;-81
2022/08/07 09:24:19;;;;;;;0.20;0.20;;;;;;;;;;5068741;28;20022;-81
2022/08/07 09:27:02;;;;;;;1.10;0.73;;;;;;;;;;5089049;28;20036;-81
2022/08/07 09:29:48;;;;;;;0.15;0.15;;;;;;;;;;5088782;28;20039;-82
2022/08/07 09:32:24;;;;;;;0.10;0.10;;;;;;;;;;5094734;28;20052;-82
2022/08/07 09:35:05;;;;;;;0.03;0.03;;;;;;;;;;5094478;28;20027;-84
2022/08/07 09:38:11;;;;;;;0.10;0.10;;;;;;;;;;5079307;28;20032;-84
2022/08/07 09:40:44;;;;;;;0.30;0.30;;;;;;;;;;5069106;28;20039;-85
2022/08/07 09:43:33;;;;;;;0.10;0.10;;;;;;;;;;5084694;28;20047;-84
2022/08/07 09:46:31;;;;;;;0.00;0.00;;;;;;;;;;5087962;28;20024;-81
2022/08/07 09:49:15;;;;;;;0.13;0.13;;;;;;;;;;5099021;28;20531;-86
2022/08/07 09:52:08;;;;;;;0.10;0.10;;;;;;;;;;5081751;28;20020;-84
2022/08/07 09:54:56;;;;;;;0.00;0.00;;;;;;;;;;5099113;28;20035;-84
2022/08/07 09:57:44;;;;;;;0.10;0.10;;;;;;;;;;5082301;28;20099;-83
2022/08/07 10:00:13;;;;;;;4.47;1.08;;;;;;;;;;5083000;28;20084;-85
2022/08/07 10:03:03;;;;;;;0.13;0.13;;;;;;;;;;5085796;28;20019;-85
2022/08/07 10:05:31;;;;;;;0.10;0.10;;;;;;;;;;5099543;28;20023;-85
2022/08/07 10:08:21;;;;;;;0.10;0.10;;;;;;;;;;5100175;28;20031;-84
2022/08/07 10:11:05;;;;;;;0.10;0.10;;;;;;;;;;5097086;28;20020;-84
2022/08/07 10:13:48;;;;;;;0.30;0.30;;;;;;;;;;5081063;28;20074;-86
2022/08/07 10:16:58;;;;;;;0.00;0.00;;;;;;;;;;5082073;28;20024;-87
2022/08/07 10:19:52;;;;;;;0.00;0.00;;;;;;;;;;5037935;28;20457;-86
2022/08/07 10:22:32;;;;;;;0.20;0.13;;;;;;;;;;5100142;28;20115;-84
2022/08/07 10:25:20;;;;;;;0.10;0.10;;;;;;;;;;5092170;28;20016;-86
2022/08/07 10:28:23;;;;;;;0.13;0.13;;;;;;;;;;5065306;28;20115;-86
2022/08/07 10:30:57;;;;;;;0.10;0.10;;;;;;;;;;5100366;28;20012;-85
2022/08/07 10:34:18;;;;;;;0.13;0.13;;;;;;;;;;5098702;28;20024;-85
2022/08/07 10:36:58;;;;;;;0.10;0.10;;;;;;;;;;5049019;28;20044;-82
2022/08/07 10:39:46;;;;;;;0.10;0.10;;;;;;;;;;5090015;28;20027;-85
2022/08/07 10:42:28;;;;;;;0.30;0.30;;;;;;;;;;5107107;28;20171;-85
2022/08/07 10:45:11;;;;;;;;;;;;;;;;;;5119156;28;20426;-84
2022/08/07 10:47:46;;;;;;;1.27;0.57;;;;;;;;;;5082320;28;19912;-82
2022/08/07 10:50:11;;;;;;;0.15;0.15;;;;;;;;;;5071750;28;20203;-79
2022/08/07 10:52:41;;;;;;;0.37;0.20;;;;;;;;;;5085467;28;20106;-82
2022/08/07 10:55:13;;;;;;;0.00;0.00;;;;;;;;;;5086001;28;20293;-82
2022/08/07 10:57:47;;;;;;;0.10;0.10;;;;;;;;;;5084142;28;20016;-87
2022/08/07 11:00:17;;;;;;;0.10;0.10;;;;;;;;;;5080952;28;20020;-85
2022/08/07 11:02:53;;;;;;;0.10;0.10;;;;;;;;;;5074934;28;20019;-80
2022/08/07 11:05:34;;;;;;;0.75;0.75;;;;;;;;;;5082065;28;20024;-82
2022/08/07 11:08:08;;;;;;;0.20;0.20;;;;;;;;;;5090460;28;20036;-86
2022/08/07 11:10:44;;;;;;;0.20;0.20;;;;;;;;;;5091053;28;20394;-85
2022/08/07 11:13:29;;;;;;;0.20;0.20;;;;;;;;;;5080363;28;20448;-84
2022/08/07 11:16:04;;;;;;;0.20;0.20;;;;;;;;;;5093405;28;20036;-86
2022/08/07 11:18:36;;;;;;;0.10;0.10;;;;;;;;;;5079019;28;20035;-86
2022/08/07 11:21:06;;;;;;;0.10;0.10;;;;;;;;;;5079714;28;20102;-87
2022/08/07 11:23:45;;;;;;;0.10;0.10;;;;;;;;;;5078552;28;20341;-86
2022/08/07 11:26:27;;;;;;;0.35;0.35;;;;;;;;;;5079639;28;20285;-88
2022/08/07 11:28:58;;;;;;;0.40;0.20;;;;;;;;;;5079482;28;20472;-85
2022/08/07 11:31:38;;;;;;;0.20;0.20;;;;;;;;;;5096921;28;20031;-87
2022/08/07 11:34:11;;;;;;;0.25;0.20;;;;;;;;;;5079285;28;20055;-88
2022/08/07 11:36:39;;;;;;;0.10;0.10;;;;;;;;;;5079466;28;20038;-88
2022/08/07 11:39:23;;;;;;;0.20;0.20;;;;;;;;;;5096188;28;20032;-87
2022/08/07 11:41:56;;;;;;;0.10;0.10;;;;;;;;;;5096875;28;20016;-88
2022/08/07 11:44:27;;;;;;;0.40;0.30;;;;;;;;;;5079524;28;20040;-88
2022/08/07 11:47:02;;;;;;;0.63;0.52;;;;;;;;;;5090961;28;20027;-85
2022/08/07 11:49:41;;;;;;;0.22;0.22;;;;;;;;;;5098692;28;20020;-86
2022/08/07 11:52:41;;;;;;;0.50;0.30;;;;;;;;;;5080319;28;20030;-86
2022/08/07 11:55:24;;;;;;;0.60;0.50;;;;;;;;;;5087508;28;20497;-85
2022/08/07 11:57:58;;;;;;;8.35;0.30;;;;;;;;;;5074341;28;20107;-88
2022/08/07 12:00:52;;;;;;;0.20;0.20;;;;;;;;;;5058770;28;20521;-86
2022/08/07 12:03:31;;;;;;;0.30;0.30;;;;;;;;;;5073197;28;20063;-84
2022/08/07 12:06:23;;;;;;;0.10;0.10;;;;;;;;;;5078975;28;20035;-87
2022/08/07 12:08:54;;;;;;;0.20;0.20;;;;;;;;;;5096089;28;20077;-84
2022/08/07 12:11:25;;;;;;;0.30;0.30;;;;;;;;;;5075248;28;20032;-84
2022/08/07 12:14:07;;;;;;;0.20;0.20;;;;;;;;;;5077714;28;20035;-87
2022/08/07 12:16:44;;;;;;;0.20;0.20;;;;;;;;;;5088156;28;20028;-85
2022/08/07 12:19:17;;;;;;;0.30;0.20;;;;;;;;;;5096229;28;20028;-87
2022/08/07 12:22:01;;;;;;;0.30;0.30;;;;;;;;;;5096061;28;20027;-87
2022/08/07 12:27:38;;;;;;;0.30;0.30;;;;;;;;;;5096040;28;20514;-88
2022/08/07 12:30:07;;;;;;;0.10;0.10;;;;;;;;;;5095991;28;20460;-86
2022/08/07 12:32:43;;;;;;;0.43;0.43;;;;;;;;;;5076417;28;20047;-87
2022/08/07 12:35:14;;;;;;;0.57;0.30;;;;;;;;;;5078084;28;20024;-84
2022/08/07 12:37:40;;;;;;;0.32;0.32;;;;;;;;;;5095843;28;20433;-87
2022/08/07 12:40:07;;;;;;;0.30;0.30;;;;;;;;;;5077515;28;20039;-86
2022/08/07 12:42:33;;;;;;;0.28;0.28;;;;;;;;;;5088901;28;20020;-85
2022/08/07 12:45:15;;;;;;;0.45;0.45;;;;;;;;;;5075981;28;20036;-87
2022/08/07 12:48:05;;;;;;;0.65;0.17;;;;;;;;;;5057628;28;20024;-86
2022/08/07 12:50:39;;;;;;;0.30;0.30;;;;;;;;;;5057743;28;20033;-89
2022/08/07 12:53:19;;;;;;;0.10;0.10;;;;;;;;;;5058652;28;20033;-87
2022/08/07 12:55:50;;;;;;;0.17;0.17;;;;;;;;;;5074220;28;20037;-86
2022/08/07 12:58:19;;;;;;;0.10;0.10;;;;;;;;;;5057433;28;20024;-86
2022/08/07 13:00:54;;;;;;;0.10;0.10;;;;;;;;;;5087459;28;20028;-87
2022/08/07 13:03:58;;;;;;;0.20;0.20;;;;;;;;;;5076647;28;20043;-88
2022/08/07 13:06:45;;;;;;;0.10;0.10;;;;;;;;;;5085597;28;20032;-87
2022/08/07 13:09:43;;;;;;;0.32;0.32;;;;;;;;;;5077342;28;20024;-88
2022/08/07 13:12:10;;;;;;;0.10;0.10;;;;;;;;;;5062167;28;20143;-89
2022/08/07 13:14:42;;;;;;;0.00;0.00;;;;;;;;;;5077320;28;20031;-85
2022/08/07 13:17:11;;;;;;;0.10;0.10;;;;;;;;;;5095167;28;20016;-87
2022/08/07 13:20:07;;;;;;;0.10;0.10;;;;;;;;;;5096390;28;20032;-87
2022/08/07 13:22:46;;;;;;;0.10;0.10;;;;;;;;;;5093630;28;20039;-86
2022/08/07 13:25:32;;;;;;;0.00;0.00;;;;;;;;;;5076617;28;20051;-87
2022/08/07 13:28:13;;;;;;;0.13;0.13;;;;;;;;;;5077262;28;20073;-84
2022/08/07 13:30:44;;;;;;;0.10;0.10;;;;;;;;;;5077184;28;20032;-83
2022/08/07 13:33:34;;;;;;;0.00;0.00;;;;;;;;;;5077058;28;20028;-86
2022/08/07 13:36:04;;;;;;;0.00;0.00;;;;;;;;;;5076293;28;20020;-81
2022/08/07 13:38:44;;;;;;;0.10;0.10;;;;;;;;;;5074639;28;20043;-86
2022/08/07 13:41:40;;;;;;;0.03;0.03;;;;;;;;;;5085650;28;20113;-87
2022/08/07 13:44:06;;;;;;;0.05;0.05;;;;;;;;;;5094603;28;20035;-86
2022/08/07 13:46:37;;;;;;;0.00;0.00;;;;;;;;;;5076834;28;20020;-87
2022/08/07 13:49:09;;;;;;;2.03;0.30;;;;;;;;;;5077389;28;20047;-88
2022/08/07 13:51:35;;;;;;;0.20;0.20;;;;;;;;;;5093811;28;20038;-86
2022/08/07 13:54:05;;;;;;;0.40;0.10;;;;;;;;;;5076767;28;20116;-86
2022/08/07 13:56:35;;;;;;;0.28;0.20;;;;;;;;;;5077138;28;20024;-85
2022/08/07 13:59:01;;;;;;;0.20;0.20;;;;;;;;;;5060311;28;20046;-86
2022/08/07 14:01:31;;;;;;;0.10;0.10;;;;;;;;;;5077130;28;20509;-88
2022/08/07 14:03:57;;;;;;;0.20;0.20;;;;;;;;;;5094478;28;20019;-89
2022/08/07 14:06:30;;;;;;;0.10;0.10;;;;;;;;;;5078513;28;20119;-86
2022/08/07 14:08:56;;;;;;;0.10;0.10;;;;;;;;;;5061613;28;20024;-85
2022/08/07 14:11:27;;;;;;;0.85;0.38;;;;;;;;;;5094367;28;20032;-88
2022/08/07 14:13:56;;;;;;;0.10;0.10;;;;;;;;;;5094562;28;20432;-85
2022/08/07 14:16:29;;;;;;;0.10;0.10;;;;;;;;;;5076734;28;20043;-86
2022/08/07 14:18:59;;;;;;;0.20;0.20;;;;;;;;;;5076704;28;20028;-84
2022/08/07 14:21:39;;;;;;;0.10;0.10;;;;;;;;;;5075629;28;20433;-85
2022/08/07 14:24:13;;;;;;;0.10;0.10;;;;;;;;;;5095234;28;20109;-87
2022/08/07 14:26:49;;;;;;;0.40;0.40;;;;;;;;;;5076823;28;20020;-85
2022/08/07 14:29:18;;;;;;;0.10;0.10;;;;;;;;;;5094932;28;20035;-87
2022/08/07 14:31:46;;;;;;;0.08;0.08;;;;;;;;;;5060027;28;20034;-85
2022/08/07 14:34:14;;;;;;;0.25;0.20;;;;;;;;;;5077076;28;20421;-85
2022/08/07 14:36:42;;;;;;;0.77;0.05;;;;;;;;;;5093848;28;20445;-87
2022/08/07 14:39:10;;;;;;;0.47;0.43;;;;;;;;;;5081302;28;20323;-88
2022/08/07 14:41:39;;;;;;;0.85;0.52;;;;;;;;;;5081966;28;20365;-87
2022/08/07 14:44:09;;;;;;;1.00;0.30;;;;;;;;;;5081048;28;20084;-86
2022/08/07 14:46:36;;;;;;;0.20;0.20;;;;;;;;;;5080999;28;20031;-87
2022/08/07 14:49:03;;;;;;;0.32;0.10;;;;;;;;;;5098740;28;20031;-86
2022/08/07 14:51:31;;;;;;;0.00;0.00;;;;;;;;;;5098009;28;20471;-86
2022/08/07 14:54:00;;;;;;;0.20;0.20;;;;;;;;;;5081100;28;20039;-86
2022/08/07 14:56:29;;;;;;;0.63;0.43;;;;;;;;;;5080319;28;20102;-87
2022/08/07 14:58:59;;;;;;;0.77;0.38;;;;;;;;;;5063442;28;20027;-85
2022/08/07 15:01:27;;;;;;;0.52;0.20;;;;;;;;;;5097108;28;20354;-87
2022/08/07 15:03:52;;;;;;;0.55;0.55;;;;;;;;;;5079935;28;20016;-84
2022/08/07 15:06:24;;;;;;;0.00;0.00;;;;;;;;;;5079722;28;20031;-84
2022/08/07 15:08:50;;;;;;;0.00;0.00;;;;;;;;;;5080070;28;20016;-86
2022/08/07 15:11:20;;;;;;;0.22;0.20;;;;;;;;;;5071614;28;20426;-86
2022/08/07 15:13:52;;;;;;;1.30;1.05;;;;;;;;;;5079521;28;20112;-87
2022/08/07 15:16:21;;;;;;;0.50;0.40;;;;;;;;;;5062211;28;20040;-87
2022/08/07 15:18:47;;;;;;;1.50;0.40;;;;;;;;;;5097087;28;20039;-88
2022/08/07 15:21:20;;;;;;;0.65;0.40;;;;;;;;;;5079481;28;20027;-88